createdAt,value
2022-09-27T00:02:04.642Z,36.10
2022-09-27T00:04:34.529Z,39.20
2022-09-27T00:07:03.309Z,38.70
2022-09-27T00:09:32.178Z,33.90
2022-09-27T00:11:59.867Z,34.10
2022-09-27T00:14:27.628Z,31.90
2022-09-27T00:16:57.498Z,39.80
2022-09-27T00:19:28.224Z,30.20
2022-09-27T00:21:57.530Z,28.30
2022-09-27T00:24:26.409Z,26.70
2022-09-27T00:26:55.614Z,27.00
2022-09-27T00:29:25.508Z,26.70
2022-09-27T00:31:54.561Z,25.70
2022-09-27T00:34:26.025Z,31.60
2022-09-27T00:36:55.623Z,24.90
2022-09-27T00:39:23.358Z,27.80
2022-09-27T00:41:52.585Z,30.00
2022-09-27T00:44:28.609Z,25.90
2022-09-27T00:47:26.256Z,31.60
2022-09-27T00:50:06.800Z,32.60
2022-09-27T00:52:58.193Z,36.80
2022-09-27T00:55:36.469Z,35.30
2022-09-27T00:58:08.346Z,32.70
2022-09-27T01:00:43.969Z,35.50
2022-09-27T01:03:24.185Z,38.70
2022-09-27T01:05:53.866Z,50.00
2022-09-27T01:08:22.975Z,48.80
2022-09-27T01:11:12.102Z,24.40
2022-09-27T01:14:20.189Z,32.30
2022-09-27T01:17:07.082Z,42.30
2022-09-27T01:19:52.408Z,46.30
2022-09-27T01:22:42.584Z,46.40
2022-09-27T01:25:50.031Z,36.70
2022-09-27T01:28:39.835Z,32.00
2022-09-27T01:31:19.392Z,31.80
2022-09-27T01:34:09.238Z,31.30
2022-09-27T01:36:45.091Z,46.20
2022-09-27T01:39:38.187Z,37.00
2022-09-27T01:42:28.269Z,31.80
2022-09-27T01:45:19.245Z,30.80
2022-09-27T01:47:56.220Z,30.20
2022-09-27T01:50:52.457Z,24.90
2022-09-27T01:53:30.226Z,28.00
2022-09-27T01:56:05.468Z,30.40
2022-09-27T01:59:13.657Z,35.40
2022-09-27T02:01:47.853Z,53.00
2022-09-27T02:04:25.673Z,50.90
2022-09-27T02:06:59.595Z,37.30
2022-09-27T02:09:40.380Z,31.10
2022-09-27T02:12:14.698Z,57.50
2022-09-27T02:14:51.795Z,31.20
2022-09-27T02:17:42.575Z,55.50
2022-09-27T02:20:24.850Z,108.70
2022-09-27T02:23:21.777Z,64.10
2022-09-27T02:26:00.557Z,77.50
2022-09-27T02:28:34.829Z,115.80
2022-09-27T02:31:02.893Z,54.30
2022-09-27T02:33:44.515Z,35.50
2022-09-27T02:36:14.049Z,63.00
2022-09-27T02:38:44.345Z,31.00
2022-09-27T02:41:17.768Z,67.80
2022-09-27T02:43:49.414Z,70.10
2022-09-27T02:46:42.567Z,41.10
2022-09-27T02:49:46.110Z,75.50
2022-09-27T02:52:28.390Z,51.70
2022-09-27T02:55:12.290Z,48.50
2022-09-27T02:58:15.065Z,31.50
2022-09-27T03:01:01.200Z,60.20
2022-09-27T03:04:07.391Z,48.40
2022-09-27T03:06:40.715Z,39.30
2022-09-27T03:09:24.367Z,52.70
2022-09-27T03:11:53.561Z,82.60
2022-09-27T03:14:21.310Z,62.50
2022-09-27T03:16:50.235Z,75.40
2022-09-27T03:19:20.687Z,81.70
2022-09-27T03:21:48.621Z,96.00
2022-09-27T03:24:17.613Z,120.30
2022-09-27T03:26:48.131Z,98.70
2022-09-27T03:29:17.683Z,97.00
2022-09-27T03:31:46.797Z,126.30
2022-09-27T03:34:15.968Z,106.80
2022-09-27T03:36:46.796Z,98.90
2022-09-27T03:39:14.519Z,56.30
2022-09-27T03:41:43.384Z,80.70
2022-09-27T03:44:12.193Z,83.30
2022-09-27T03:46:41.184Z,53.80
2022-09-27T03:49:09.149Z,97.20
2022-09-27T03:51:38.879Z,80.60
2022-09-27T03:54:07.748Z,83.10
2022-09-27T03:56:36.761Z,101.00
2022-09-27T03:59:04.501Z,78.70
2022-09-27T04:01:36.754Z,62.40
2022-09-27T04:04:10.945Z,120.20
2022-09-27T04:06:40.890Z,107.70
2022-09-27T04:09:10.016Z,115.20
2022-09-27T04:11:38.659Z,99.60
2022-09-27T04:14:06.404Z,78.40
2022-09-27T04:16:36.985Z,97.80
2022-09-27T04:19:08.140Z,98.90
2022-09-27T04:21:35.985Z,97.70
2022-09-27T04:24:06.802Z,89.90
2022-09-27T04:26:34.765Z,69.60
2022-09-27T04:29:05.219Z,84.20
2022-09-27T04:31:34.406Z,85.80
2022-09-27T04:34:02.097Z,95.60
2022-09-27T04:36:30.046Z,95.70
2022-09-27T04:39:02.841Z,64.70
2022-09-27T04:41:32.455Z,41.50
2022-09-27T04:44:02.722Z,129.10
2022-09-27T04:46:33.240Z,96.60
2022-09-27T04:49:03.632Z,94.40
2022-09-27T04:51:32.931Z,125.90
2022-09-27T04:54:03.375Z,108.70
2022-09-27T04:56:32.550Z,96.50
2022-09-27T04:59:02.578Z,85.60
2022-09-27T05:01:30.957Z,80.60
2022-09-27T05:04:00.069Z,52.20
2022-09-27T05:06:29.405Z,67.10
2022-09-27T05:08:59.231Z,54.70
2022-09-27T05:11:29.482Z,63.60
2022-09-27T05:13:57.908Z,41.60
2022-09-27T05:16:30.789Z,56.80
2022-09-27T05:19:05.835Z,51.10
2022-09-27T05:21:33.571Z,57.70
2022-09-27T05:24:03.022Z,45.10
2022-09-27T05:26:32.648Z,60.40
2022-09-27T05:29:02.311Z,61.00
2022-09-27T05:31:32.025Z,58.20
2022-09-27T05:34:01.942Z,83.60
2022-09-27T05:36:32.504Z,72.20
2022-09-27T05:39:00.202Z,69.60
2022-09-27T05:41:33.197Z,83.70
2022-09-27T05:44:03.386Z,78.80
2022-09-27T05:46:31.861Z,96.90
2022-09-27T05:49:01.170Z,115.00
2022-09-27T05:51:30.780Z,120.20
2022-09-27T05:54:01.267Z,71.30
2022-09-27T05:56:31.822Z,119.70
2022-09-27T05:59:00.808Z,88.90
2022-09-27T06:01:32.100Z,85.10
2022-09-27T06:03:59.844Z,101.90
2022-09-27T06:06:30.447Z,87.10
2022-09-27T06:11:35.464Z,119.80
2022-09-27T06:14:03.479Z,166.20
2022-09-27T06:16:32.857Z,190.70
2022-09-27T06:19:00.971Z,38.60
2022-09-27T06:21:32.662Z,141.00
2022-09-27T06:24:07.245Z,158.50
2022-09-27T06:26:35.202Z,159.10
2022-09-27T06:29:03.976Z,101.50
2022-09-27T06:31:35.105Z,130.30
2022-09-27T06:34:04.139Z,144.00
2022-09-27T06:36:33.731Z,105.40
2022-09-27T06:39:02.833Z,96.20
2022-09-27T06:41:33.568Z,109.40
2022-09-27T06:44:02.890Z,79.00
2022-09-27T06:46:35.800Z,125.60
2022-09-27T06:49:03.716Z,131.80
2022-09-27T06:51:36.511Z,121.60
2022-09-27T06:54:07.877Z,157.50
2022-09-27T06:56:41.497Z,163.40
2022-09-27T06:59:34.274Z,105.80
2022-09-27T07:02:03.951Z,85.00
2022-09-27T07:04:34.577Z,70.60
2022-09-27T07:07:04.795Z,55.80
2022-09-27T07:09:32.802Z,54.00
2022-09-27T07:12:03.918Z,65.30
2022-09-27T07:14:34.864Z,57.90
2022-09-27T07:17:03.875Z,60.90
2022-09-27T07:19:31.846Z,54.10
2022-09-27T07:21:59.769Z,49.90
2022-09-27T07:24:30.638Z,44.30
2022-09-27T07:27:00.119Z,49.10
2022-09-27T07:29:28.123Z,40.40
2022-09-27T07:31:57.723Z,40.30
2022-09-27T07:34:29.049Z,37.50
2022-09-27T07:37:07.491Z,37.30
2022-09-27T07:39:35.473Z,39.50
2022-09-27T07:42:03.612Z,37.00
2022-09-27T07:44:33.358Z,33.80
2022-09-27T07:47:01.289Z,30.70
2022-09-27T07:49:29.555Z,28.10
2022-09-27T07:51:57.323Z,25.50
2022-09-27T07:54:27.165Z,30.50
2022-09-27T07:56:59.812Z,27.70
2022-09-27T07:59:27.615Z,26.20
2022-09-27T08:01:57.440Z,27.00
2022-09-27T08:04:27.201Z,26.30
2022-09-27T08:06:56.839Z,28.10
2022-09-27T08:09:28.770Z,29.80
2022-09-27T08:11:58.858Z,28.70
2022-09-27T08:14:26.823Z,27.10
2022-09-27T08:16:54.906Z,25.80
2022-09-27T08:19:23.472Z,24.70
2022-09-27T08:21:59.001Z,26.10
2022-09-27T08:24:27.143Z,30.00
2022-09-27T08:26:55.646Z,30.60
2022-09-27T08:29:23.604Z,30.50
2022-09-27T08:31:54.469Z,28.70
2022-09-27T08:34:24.502Z,32.70
2022-09-27T08:36:54.298Z,35.00
2022-09-27T08:39:23.349Z,35.10
2022-09-27T08:42:02.874Z,29.60
2022-09-27T08:44:45.227Z,27.20
2022-09-27T08:47:32.130Z,26.20
2022-09-27T08:50:09.723Z,26.00
2022-09-27T08:52:49.570Z,23.90
2022-09-27T08:55:59.961Z,23.30
2022-09-27T08:58:37.422Z,22.40
2022-09-27T09:01:25.067Z,22.00
2022-09-27T09:04:06.070Z,22.30
2022-09-27T09:06:47.896Z,21.50
2022-09-27T09:09:39.634Z,21.10
2022-09-27T09:12:46.946Z,23.70
2022-09-27T09:15:55.401Z,20.70
2022-09-27T09:18:49.854Z,21.60
2022-09-27T09:21:50.868Z,20.70
2022-09-27T09:24:42.113Z,22.10
2022-09-27T09:27:22.009Z,21.10
2022-09-27T09:30:19.820Z,19.50
2022-09-27T09:33:16.617Z,19.70
2022-09-27T09:35:52.966Z,20.90
2022-09-27T09:38:39.674Z,21.10
2022-09-27T09:41:26.000Z,19.20
2022-09-27T09:44:13.197Z,18.10
2022-09-27T09:46:48.532Z,18.00
2022-09-27T09:49:31.259Z,16.50
2022-09-27T09:52:12.975Z,16.90
2022-09-27T09:54:49.961Z,17.80
2022-09-27T09:57:28.428Z,17.60
2022-09-27T10:00:08.820Z,15.30
2022-09-27T10:02:42.924Z,16.80
2022-09-27T10:05:20.321Z,16.40
2022-09-27T10:07:52.686Z,16.30
2022-09-27T10:10:22.517Z,18.20
2022-09-27T10:12:52.522Z,17.50
2022-09-27T10:15:27.071Z,17.00
2022-09-27T10:17:59.808Z,16.60
2022-09-27T10:20:38.839Z,16.00
2022-09-27T10:23:21.352Z,17.00
2022-09-27T10:25:55.781Z,15.40
2022-09-27T10:28:28.824Z,16.10
2022-09-27T10:31:03.211Z,17.00
2022-09-27T10:33:33.002Z,19.60
2022-09-27T10:36:02.989Z,21.00
2022-09-27T10:38:39.927Z,16.00
2022-09-27T10:41:38.852Z,18.20
2022-09-27T10:44:16.262Z,18.70
2022-09-27T10:46:52.287Z,18.60
2022-09-27T10:49:30.038Z,18.90
2022-09-27T10:52:08.573Z,18.30
2022-09-27T10:54:43.377Z,18.00
2022-09-27T10:57:13.952Z,17.90
2022-09-27T10:59:48.866Z,16.70
2022-09-27T11:02:27.959Z,19.60
2022-09-27T11:05:15.316Z,17.40
2022-09-27T11:08:27.402Z,17.50
2022-09-27T11:11:13.516Z,19.00
2022-09-27T11:14:07.736Z,20.90
2022-09-27T11:16:55.299Z,22.20
2022-09-27T11:19:35.293Z,23.20
2022-09-27T11:22:27.347Z,23.70
2022-09-27T11:25:01.246Z,22.60
2022-09-27T11:28:07.499Z,19.60
2022-09-27T11:30:45.418Z,19.90
2022-09-27T11:33:45.887Z,20.50
2022-09-27T11:36:18.396Z,19.90
2022-09-27T11:39:11.317Z,20.50
2022-09-27T11:42:07.319Z,22.40
2022-09-27T11:45:30.417Z,19.10
2022-09-27T11:48:04.006Z,18.60
2022-09-27T11:50:59.988Z,19.50
2022-09-27T11:53:33.026Z,18.80
2022-09-27T11:56:38.053Z,15.70
2022-09-27T11:59:28.517Z,10.60
2022-09-27T12:02:17.184Z,8.80
2022-09-27T12:08:21.804Z,8.90
2022-09-27T12:10:58.996Z,10.80
2022-09-27T12:13:50.251Z,11.50
2022-09-27T12:16:21.219Z,10.40
2022-09-27T12:18:54.254Z,10.60
2022-09-27T12:24:00.865Z,7.20
2022-09-27T12:26:45.778Z,9.00
2022-09-27T12:29:34.314Z,9.80
2022-09-27T12:32:25.800Z,6.70
2022-09-27T12:35:18.562Z,8.20
2022-09-27T12:38:22.678Z,11.50
2022-09-27T12:43:33.891Z,11.90
2022-09-27T12:46:35.668Z,10.70
2022-09-27T12:49:27.896Z,7.90
2022-09-27T12:52:15.386Z,9.80
2022-09-27T12:54:53.319Z,9.20
2022-09-27T12:57:42.246Z,9.20
2022-09-27T13:00:29.077Z,12.40
2022-09-27T13:03:18.060Z,8.70
2022-09-27T13:06:24.477Z,8.70
2022-09-27T13:09:10.756Z,9.40
2022-09-27T13:11:41.934Z,12.70
2022-09-27T13:14:33.322Z,10.00
2022-09-27T13:17:02.987Z,9.70
2022-09-27T13:19:43.517Z,10.10
2022-09-27T13:22:27.389Z,12.20
2022-09-27T13:24:56.516Z,9.10
2022-09-27T13:27:28.994Z,10.90
2022-09-27T13:30:08.770Z,14.60
2022-09-27T13:32:37.918Z,11.90
2022-09-27T13:35:30.004Z,9.90
2022-09-27T13:38:01.428Z,8.90
2022-09-27T13:40:37.421Z,11.80
2022-09-27T13:43:22.337Z,9.60
2022-09-27T13:46:06.016Z,8.90
2022-09-27T13:51:18.775Z,10.50
2022-09-27T13:54:10.404Z,9.10
2022-09-27T13:56:41.155Z,10.00
2022-09-27T13:59:15.171Z,10.30
2022-09-27T14:01:52.517Z,11.90
2022-09-27T14:04:51.974Z,8.60
2022-09-27T14:07:38.036Z,9.30
2022-09-27T14:10:14.621Z,10.20
2022-09-27T14:12:45.707Z,13.50
2022-09-27T14:15:30.706Z,9.20
2022-09-27T14:18:00.559Z,9.50
2022-09-27T14:20:36.859Z,12.50
2022-09-27T14:23:05.789Z,9.70
2022-09-27T14:25:33.711Z,12.50
2022-09-27T14:28:02.334Z,14.40
2022-09-27T14:30:31.659Z,14.90
2022-09-27T14:33:02.620Z,12.70
2022-09-27T14:35:51.973Z,12.90
2022-09-27T14:38:38.961Z,11.70
2022-09-27T14:41:10.590Z,14.10
2022-09-27T14:43:45.969Z,11.70
2022-09-27T14:46:31.001Z,13.00
2022-09-27T14:49:14.800Z,12.60
2022-09-27T14:51:43.510Z,15.50
2022-09-27T14:54:21.907Z,12.10
2022-09-27T14:56:53.588Z,12.70
2022-09-27T14:59:32.968Z,11.90
2022-09-27T15:02:16.620Z,14.50
2022-09-27T15:04:47.439Z,12.30
2022-09-27T15:07:19.414Z,14.20
2022-09-27T15:09:47.629Z,13.50
2022-09-27T15:12:25.629Z,13.70
2022-09-27T15:14:58.754Z,13.20
2022-09-27T15:17:26.599Z,14.70
2022-09-27T15:20:20.117Z,11.20
2022-09-27T15:22:49.099Z,14.70
2022-09-27T15:25:39.067Z,13.80
2022-09-27T15:28:18.162Z,13.70
2022-09-27T15:30:56.865Z,16.20
2022-09-27T15:33:34.879Z,14.20
2022-09-27T15:36:06.564Z,14.40
2022-09-27T15:38:47.770Z,16.80
2022-09-27T15:41:20.361Z,14.50
2022-09-27T15:43:51.577Z,14.60
2022-09-27T15:46:22.527Z,17.10
2022-09-27T15:49:18.569Z,18.20
2022-09-27T15:51:52.406Z,17.40
2022-09-27T15:54:22.934Z,17.10
2022-09-27T15:56:56.186Z,18.50
2022-09-27T15:59:28.741Z,17.70
2022-09-27T16:02:02.988Z,17.00
2022-09-27T16:04:35.073Z,17.30
2022-09-27T16:07:05.404Z,22.00
2022-09-27T16:09:33.417Z,22.00
2022-09-27T16:12:02.030Z,21.20
2022-09-27T16:14:30.452Z,21.10
2022-09-27T16:17:00.744Z,25.80
2022-09-27T16:19:29.154Z,24.10
2022-09-27T16:21:58.605Z,24.40
2022-09-27T16:24:29.021Z,28.00
2022-09-27T16:26:57.413Z,26.50
2022-09-27T16:29:26.933Z,22.90
2022-09-27T16:31:55.808Z,21.10
2022-09-27T16:34:23.846Z,24.90
2022-09-27T16:36:52.373Z,21.50
2022-09-27T16:39:20.425Z,21.60
2022-09-27T16:41:49.137Z,22.40
2022-09-27T16:44:18.277Z,20.40
2022-09-27T16:46:47.459Z,22.80
2022-09-27T16:49:34.435Z,20.60
2022-09-27T16:52:03.155Z,22.70
2022-09-27T16:54:32.133Z,20.30
2022-09-27T16:57:01.050Z,24.70
2022-09-27T16:59:29.052Z,23.00
2022-09-27T17:01:58.358Z,22.00
2022-09-27T17:04:29.322Z,22.80
2022-09-27T17:06:58.636Z,22.80
2022-09-27T17:09:28.146Z,23.00
2022-09-27T17:11:57.075Z,24.60
2022-09-27T17:14:28.362Z,22.80
2022-09-27T17:16:58.220Z,20.60
2022-09-27T17:19:26.277Z,20.30
2022-09-27T17:21:57.860Z,21.50
2022-09-27T17:24:27.399Z,22.60
2022-09-27T17:26:56.738Z,25.60
2022-09-27T17:29:25.714Z,26.40
2022-09-27T17:31:53.836Z,23.00
2022-09-27T17:34:23.268Z,26.00
2022-09-27T17:36:52.809Z,24.40
2022-09-27T17:39:22.817Z,25.10
2022-09-27T17:41:52.819Z,30.40
2022-09-27T17:44:22.098Z,32.40
2022-09-27T17:47:11.020Z,29.70
2022-09-27T17:49:58.682Z,29.70
2022-09-27T17:52:30.138Z,28.10
2022-09-27T17:55:00.535Z,28.40
2022-09-27T17:57:30.526Z,25.30
2022-09-27T17:59:59.699Z,25.30
2022-09-27T18:02:29.021Z,23.90
2022-09-27T18:04:59.990Z,22.60
2022-09-27T18:07:30.509Z,22.70
2022-09-27T18:10:00.005Z,22.00
2022-09-27T18:12:32.599Z,21.70
2022-09-27T18:15:02.779Z,19.90
2022-09-27T18:17:31.207Z,21.30
2022-09-27T18:20:03.962Z,19.50
2022-09-27T18:22:33.430Z,21.30
2022-09-27T18:25:03.658Z,21.00
2022-09-27T18:27:36.326Z,22.20
2022-09-27T18:30:06.893Z,20.90
2022-09-27T18:32:36.679Z,20.40
2022-09-27T18:35:07.380Z,22.50
2022-09-27T18:37:35.785Z,28.00
2022-09-27T18:40:05.650Z,23.20
2022-09-27T18:42:33.944Z,25.10
2022-09-27T18:45:06.318Z,25.60
2022-09-27T18:47:36.152Z,26.20
2022-09-27T18:50:06.073Z,26.20
2022-09-27T18:52:36.654Z,27.30
2022-09-27T18:55:06.828Z,30.00
2022-09-27T18:57:38.787Z,26.70
2022-09-27T19:00:09.251Z,27.90
2022-09-27T19:02:37.116Z,29.40
2022-09-27T19:05:07.720Z,30.50
2022-09-27T19:07:39.059Z,30.50
2022-09-27T19:10:10.647Z,32.10
2022-09-27T19:12:41.948Z,33.00
2022-09-27T19:15:12.830Z,39.40
2022-09-27T19:17:40.941Z,33.00
2022-09-27T19:20:11.682Z,38.30
2022-09-27T19:22:39.641Z,35.00
2022-09-27T19:25:12.041Z,34.90
2022-09-27T19:27:43.245Z,32.20
2022-09-27T19:30:14.634Z,34.70
2022-09-27T19:32:42.586Z,33.70
2022-09-27T19:35:12.282Z,32.80
2022-09-27T19:37:42.636Z,29.10
2022-09-27T19:40:10.732Z,30.60
2022-09-27T19:42:40.836Z,27.80
2022-09-27T19:45:12.448Z,28.60
2022-09-27T19:47:40.353Z,31.00
2022-09-27T19:50:10.878Z,30.70
2022-09-27T19:52:39.605Z,28.80
2022-09-27T19:55:09.947Z,27.20
2022-09-27T19:57:37.681Z,29.80
2022-09-27T20:00:07.862Z,30.80
2022-09-27T20:02:35.966Z,26.80
2022-09-27T20:05:07.802Z,30.00
2022-09-27T20:07:35.790Z,26.30
2022-09-27T20:10:06.808Z,26.30
2022-09-27T20:12:34.828Z,25.40
2022-09-27T20:15:06.535Z,22.80
2022-09-27T20:17:35.536Z,21.70
2022-09-27T20:20:03.579Z,20.50
2022-09-27T20:22:32.229Z,20.10
2022-09-27T20:25:00.172Z,19.10
2022-09-27T20:27:29.173Z,20.40
2022-09-27T20:29:59.670Z,22.00
2022-09-27T20:32:28.443Z,21.50
2022-09-27T20:35:00.626Z,19.40
2022-09-27T20:37:32.894Z,19.70
2022-09-27T20:40:01.071Z,22.20
2022-09-27T20:42:29.169Z,20.40
2022-09-27T20:44:58.680Z,22.20
2022-09-27T20:47:26.404Z,20.00
2022-09-27T20:49:54.051Z,22.40
2022-09-27T20:52:21.977Z,20.60
2022-09-27T20:54:49.882Z,21.10
2022-09-27T20:57:31.077Z,23.10
2022-09-27T21:00:13.309Z,23.40
2022-09-27T21:02:41.369Z,22.80
2022-09-27T21:05:11.882Z,25.00
2022-09-27T21:07:39.792Z,23.60
2022-09-27T21:10:08.402Z,22.50
2022-09-27T21:12:36.409Z,19.80
2022-09-27T21:15:07.775Z,18.30
2022-09-27T21:17:35.671Z,18.20
2022-09-27T21:20:04.813Z,19.90
2022-09-27T21:22:37.082Z,17.40
2022-09-27T21:25:07.860Z,20.30
2022-09-27T21:27:35.852Z,17.30
2022-09-27T21:30:05.905Z,19.70
2022-09-27T21:32:35.089Z,20.90
2022-09-27T21:35:07.425Z,18.00
2022-09-27T21:37:35.164Z,21.90
2022-09-27T21:40:08.356Z,19.80
2022-09-27T21:42:36.251Z,21.30
2022-09-27T21:45:08.128Z,21.50
2022-09-27T21:47:36.151Z,19.90
2022-09-27T21:50:08.000Z,19.00
2022-09-27T21:52:35.704Z,18.20
2022-09-27T21:55:06.237Z,18.70
2022-09-27T21:57:34.126Z,18.20
2022-09-27T22:00:07.632Z,17.00
2022-09-27T22:02:39.250Z,15.60
2022-09-27T22:05:08.232Z,18.30
2022-09-27T22:07:35.891Z,17.10
2022-09-27T22:10:09.754Z,19.00
2022-09-27T22:12:37.450Z,19.50
2022-09-27T22:15:08.847Z,18.20
2022-09-27T22:17:36.549Z,16.90
2022-09-27T22:20:10.056Z,15.80
2022-09-27T22:22:37.997Z,13.80
2022-09-27T22:25:08.939Z,14.40
2022-09-27T22:27:36.910Z,12.70
2022-09-27T22:30:10.979Z,12.80
2022-09-27T22:32:38.772Z,12.10
2022-09-27T22:38:19.052Z,11.40
2022-09-27T22:40:56.982Z,9.60
2022-09-27T22:43:26.725Z,10.60
2022-09-27T22:45:54.551Z,10.00
2022-09-27T22:48:28.173Z,14.60
2022-09-27T22:54:00.812Z,14.90
2022-09-27T22:56:29.578Z,12.30
2022-09-27T22:58:57.393Z,14.50
2022-09-27T23:01:25.906Z,10.80
2022-09-27T23:03:58.553Z,13.50
2022-09-27T23:06:26.533Z,11.70
2022-09-27T23:08:55.721Z,12.40
2022-09-27T23:11:24.034Z,11.90
2022-09-27T23:13:54.400Z,10.50
2022-09-27T23:16:26.538Z,13.30
2022-09-27T23:18:56.872Z,15.40
2022-09-27T23:21:29.367Z,14.00
2022-09-27T23:24:01.649Z,14.20
2022-09-27T23:26:29.485Z,14.80
2022-09-27T23:29:05.279Z,16.40
2022-09-27T23:31:33.769Z,13.50
2022-09-27T23:34:09.248Z,13.10
2022-09-27T23:36:36.958Z,14.30
2022-09-27T23:39:04.945Z,13.80
2022-09-27T23:41:36.610Z,11.90
2022-09-27T23:44:07.394Z,12.10
2022-09-27T23:46:36.031Z,13.00
2022-09-27T23:49:11.376Z,14.60
2022-09-27T23:51:47.077Z,13.40
2022-09-27T23:54:15.110Z,13.10
2022-09-27T23:56:43.308Z,15.50
2022-09-27T23:59:11.168Z,12.90
